Time;durP1;ratioP1;P1;durP2;ratioP2;P2;SDS_P1;SDS_P2;PMS_P1;PMS_P2;Temp;Humidity;BMP_temperature;BMP_pressure;BME280_temperature;BME280_humidity;BME280_pressure;Samples;Min_cycle;Max_cycle;Signal;HPM_P1;HPM_P2
2021/11/15 00:01:11;;;;;;;0.40;0.30;;;;;;;7.41;85.99;102452.38;5053800;28;20446;-68
2021/11/15 00:03:38;;;;;;;0.40;0.30;;;;;;;7.48;86.25;102453.91;5053779;28;20513;-67
2021/11/15 00:06:06;;;;;;;0.97;0.97;;;;;;;7.54;86.73;102452.13;5053753;28;20470;-67
2021/11/15 00:08:33;;;;;;;2.50;2.40;;;;;;;7.55;87.26;102457.28;5053949;28;20443;-67
2021/11/15 00:10:59;;;;;;;0.50;0.30;;;;;;;7.54;87.24;102444.88;5053603;28;20515;-67
2021/11/15 00:13:26;;;;;;;0.40;0.20;;;;;;;7.50;87.19;102456.34;5059353;22;20529;-82
2021/11/15 00:15:52;;;;;;;0.40;0.30;;;;;;;7.58;86.78;102450.63;5037149;28;20451;-82
2021/11/15 00:18:19;;;;;;;0.40;0.30;;;;;;;7.58;87.06;102439.84;5036564;28;20483;-82
2021/11/15 00:20:46;;;;;;;0.40;0.30;;;;;;;7.64;86.85;102444.28;5037455;28;20450;-82
2021/11/15 00:23:13;;;;;;;0.60;0.60;;;;;;;7.60;87.37;102459.28;5037464;28;20471;-83
2021/11/15 00:25:40;;;;;;;0.40;0.30;;;;;;;7.62;87.03;102451.78;5038399;28;20455;-81
2021/11/15 00:28:07;;;;;;;2.27;2.13;;;;;;;7.66;86.95;102452.97;5037858;28;20443;-83
2021/11/15 00:30:33;;;;;;;0.40;0.30;;;;;;;7.68;87.40;102445.44;5037689;28;20455;-83
2021/11/15 00:33:00;;;;;;;1.33;1.23;;;;;;;7.68;86.75;102450.03;5038177;28;20439;-83
2021/11/15 00:35:27;;;;;;;0.40;0.30;;;;;;;7.66;86.82;102458.34;5038200;28;20432;-83
2021/11/15 00:37:53;;;;;;;4.80;4.43;;;;;;;7.58;85.84;102453.31;5038932;28;20440;-82
2021/11/15 00:40:21;;;;;;;0.40;0.30;;;;;;;7.59;85.71;102457.66;5038331;28;20487;-83
2021/11/15 00:42:48;;;;;;;0.40;0.30;;;;;;;7.59;85.42;102461.16;5038545;28;20822;-83
2021/11/15 00:45:16;;;;;;;0.40;0.30;;;;;;;7.63;85.95;102452.59;5038809;28;20452;-82
2021/11/15 00:47:43;;;;;;;0.40;0.30;;;;;;;7.66;87.00;102461.06;5038229;28;20932;-82
2021/11/15 00:50:12;;;;;;;0.40;0.30;;;;;;;7.53;87.09;102454.03;5038478;28;20925;-82
2021/11/15 00:52:39;;;;;;;0.40;0.30;;;;;;;7.53;86.73;102459.41;5043162;28;20451;-82
2021/11/15 00:55:06;;;;;;;0.40;0.30;;;;;;;7.53;86.10;102456.72;5035812;28;20466;-82
2021/11/15 00:57:34;;;;;;;0.40;0.30;;;;;;;7.53;85.73;102455.91;5036293;28;20451;-82
2021/11/15 01:00:01;;;;;;;1.90;1.80;;;;;;;7.53;85.06;102464.81;5036113;28;21030;-82
2021/11/15 01:02:28;;;;;;;0.40;0.30;;;;;;;7.52;85.54;102456.94;5036019;28;20948;-82
2021/11/15 01:04:55;;;;;;;0.40;0.30;;;;;;;7.51;85.30;102458.81;5036152;28;20513;-83
2021/11/15 01:07:21;;;;;;;0.57;0.57;;;;;;;7.46;85.26;102452.47;5035688;28;20452;-82
2021/11/15 01:09:48;;;;;;;0.40;0.30;;;;;;;7.42;85.23;102451.31;5036311;28;20447;-82
2021/11/15 01:12:14;;;;;;;0.40;0.30;;;;;;;7.45;86.01;102445.47;5036114;28;20443;-82
2021/11/15 01:14:42;;;;;;;2.60;1.43;;;;;;;7.45;85.91;102445.47;5035909;28;20463;-82
2021/11/15 01:17:09;;;;;;;0.40;0.30;;;;;;;7.48;86.15;102453.06;5036634;28;20446;-82
2021/11/15 01:19:35;;;;;;;2.30;2.20;;;;;;;7.49;86.96;102447.44;5036548;28;20490;-82
2021/11/15 01:22:02;;;;;;;0.50;0.43;;;;;;;7.52;87.75;102446.16;5036351;28;20431;-82
2021/11/15 01:24:29;;;;;;;0.40;0.30;;;;;;;7.61;87.92;102454.69;5036493;28;20847;-82
2021/11/15 01:26:55;;;;;;;0.40;0.30;;;;;;;7.63;87.71;102452.59;5036237;28;20447;-83
2021/11/15 01:29:22;;;;;;;0.40;0.30;;;;;;;7.60;87.83;102445.78;5036537;28;20446;-81
2021/11/15 01:31:50;;;;;;;0.40;0.30;;;;;;;7.64;87.95;102457.75;5036132;28;20443;-81
2021/11/15 01:34:16;;;;;;;4.30;4.00;;;;;;;7.56;88.39;102448.13;5036704;28;20458;-81
2021/11/15 01:36:43;;;;;;;0.40;0.30;;;;;;;7.60;88.86;102451.19;5036597;28;20447;-81
2021/11/15 01:39:09;;;;;;;0.40;0.30;;;;;;;7.62;89.12;102446.41;5039637;28;20483;-81
2021/11/15 01:41:36;;;;;;;0.40;0.27;;;;;;;7.62;88.92;102443.69;5040138;28;20450;-81
2021/11/15 01:44:03;;;;;;;0.40;0.30;;;;;;;7.56;89.24;102450.84;5040112;28;20479;-81
2021/11/15 01:46:29;;;;;;;0.40;0.30;;;;;;;7.69;88.75;102447.09;5040168;28;20431;-81
2021/11/15 01:48:57;;;;;;;0.47;0.30;;;;;;;7.72;88.29;102452.00;5042398;28;20958;-79
2021/11/15 01:51:24;;;;;;;0.40;0.30;;;;;;;7.68;87.68;102450.84;5040132;28;20442;-81
2021/11/15 01:53:50;;;;;;;0.40;0.30;;;;;;;7.63;87.06;102445.34;5039792;28;20470;-81
2021/11/15 01:56:17;;;;;;;0.40;0.30;;;;;;;7.62;86.14;102441.00;5039552;28;20455;-82
2021/11/15 01:58:44;;;;;;;0.40;0.30;;;;;;;7.62;86.02;102435.59;5039367;28;20570;-81
2021/11/15 02:01:10;;;;;;;1.57;1.47;;;;;;;7.58;85.53;102432.56;5039582;28;20438;-81
2021/11/15 02:03:37;;;;;;;0.40;0.30;;;;;;;7.59;85.47;102436.06;5039504;28;20827;-81
2021/11/15 02:06:06;;;;;;;0.40;0.30;;;;;;;7.56;85.19;102437.34;5039322;28;20811;-81
2021/11/15 02:08:33;;;;;;;0.40;0.30;;;;;;;7.54;84.91;102433.25;5039541;28;20948;-82
2021/11/15 02:10:59;;;;;;;0.50;0.50;;;;;;;7.51;84.62;102434.53;5039524;28;20454;-81
2021/11/15 02:13:26;;;;;;;0.40;0.30;;;;;;;7.52;85.71;102435.34;5038970;28;20490;-81
2021/11/15 02:15:53;;;;;;;0.40;0.20;;;;;;;7.47;86.84;102432.56;5039350;28;20748;-81
2021/11/15 02:18:21;;;;;;;0.40;0.30;;;;;;;7.46;87.48;102431.72;5038573;28;20790;-81
2021/11/15 02:20:52;;;;;;;0.40;0.30;;;;;;;7.48;88.16;102428.78;5038162;28;20566;-81
2021/11/15 02:23:20;;;;;;;0.40;0.30;;;;;;;7.49;88.75;102438.53;5038509;28;20494;-81
2021/11/15 02:25:49;;;;;;;0.97;0.87;;;;;;;7.50;89.12;102430.22;5038768;28;20447;-81
2021/11/15 02:28:16;;;;;;;0.40;0.27;;;;;;;7.46;89.49;102436.31;5037878;28;20943;-81
2021/11/15 02:30:43;;;;;;;0.40;0.30;;;;;;;7.51;89.85;102426.44;5037351;28;20839;-81
2021/11/15 02:33:11;;;;;;;0.40;0.30;;;;;;;7.54;90.16;102427.88;5038504;28;20468;-81
2021/11/15 02:35:39;;;;;;;0.40;0.20;;;;;;;7.56;90.30;102421.16;5038172;28;20463;-81
2021/11/15 02:38:07;;;;;;;0.50;0.43;;;;;;;7.57;90.36;102419.31;5037427;28;20467;-81
2021/11/15 02:40:34;;;;;;;0.40;0.30;;;;;;;7.62;90.10;102432.91;5038139;28;20487;-81
2021/11/15 02:43:01;;;;;;;0.40;0.30;;;;;;;7.54;90.23;102414.38;5037923;28;20815;-81
2021/11/15 02:45:29;;;;;;;0.40;0.33;;;;;;;7.63;90.13;102422.94;5037705;28;20446;-80
2021/11/15 02:47:56;;;;;;;3.17;2.97;;;;;;;7.67;90.22;102416.03;5037433;28;20459;-81
2021/11/15 02:50:25;;;;;;;4.83;4.53;;;;;;;7.69;89.98;102420.09;5036830;28;20450;-81
2021/11/15 02:52:54;;;;;;;2.20;2.10;;;;;;;7.66;89.89;102423.28;5037043;28;20450;-81
2021/11/15 02:55:23;;;;;;;2.53;2.33;;;;;;;7.66;89.73;102419.75;5037468;28;20817;-81
2021/11/15 02:57:50;;;;;;;1.03;1.03;;;;;;;7.64;89.34;102425.41;5037797;28;20439;-81
2021/11/15 03:00:22;;;;;;;0.40;0.30;;;;;;;7.59;88.22;102420.72;5037886;28;20522;-81
2021/11/15 03:02:49;;;;;;;0.93;0.80;;;;;;;7.59;88.36;102420.72;5037265;28;20428;-81
2021/11/15 03:05:16;;;;;;;13.03;11.30;;;;;;;7.54;88.16;102422.47;5037271;28;20529;-81
2021/11/15 03:07:46;;;;;;;0.50;0.50;;;;;;;7.40;87.86;102419.19;5037695;28;20458;-81
2021/11/15 03:10:13;;;;;;;0.40;0.30;;;;;;;7.39;88.47;102424.81;5037221;28;20863;-81
2021/11/15 03:12:41;;;;;;;0.40;0.30;;;;;;;7.35;87.89;102421.78;5037179;28;20489;-80
2021/11/15 03:15:09;;;;;;;0.67;0.67;;;;;;;7.38;87.80;102428.56;5037073;28;20490;-81
2021/11/15 03:17:39;;;;;;;0.40;0.30;;;;;;;7.34;88.98;102430.91;5036733;28;20447;-81
2021/11/15 03:20:08;;;;;;;0.40;0.30;;;;;;;7.38;90.11;102428.56;5036752;28;20578;-80
2021/11/15 03:22:34;;;;;;;0.40;0.27;;;;;;;7.42;90.62;102429.75;5036823;28;20851;-81
2021/11/15 03:25:01;;;;;;;0.40;0.30;;;;;;;7.47;90.77;102427.16;5037529;28;20471;-81
2021/11/15 03:27:34;;;;;;;0.80;0.63;;;;;;;7.51;91.01;102433.72;5037226;28;20522;-81
2021/11/15 03:30:03;;;;;;;1.37;1.30;;;;;;;7.52;91.29;102421.88;5037282;28;20419;-81
2021/11/15 03:32:30;;;;;;;0.40;0.27;;;;;;;7.52;91.27;102424.56;5037712;28;20451;-81
2021/11/15 03:34:59;;;;;;;0.40;0.30;;;;;;;7.50;91.00;102424.00;5037210;28;20467;-81
2021/11/15 03:37:25;;;;;;;0.40;0.20;;;;;;;7.54;90.98;102412.50;5037221;28;20436;-80
2021/11/15 03:39:52;;;;;;;0.40;0.30;;;;;;;7.58;90.66;102421.78;5036952;28;20772;-81
2021/11/15 03:42:18;;;;;;;3.80;3.60;;;;;;;7.59;90.64;102425.28;5037472;28;20443;-81
2021/11/15 03:44:45;;;;;;;0.50;0.30;;;;;;;7.63;90.23;102425.63;5036514;28;20975;-80
2021/11/15 03:47:13;;;;;;;0.40;0.30;;;;;;;7.59;90.21;102415.31;5037276;28;20455;-79
2021/11/15 03:49:39;;;;;;;1.07;1.07;;;;;;;7.63;89.89;102425.63;5036932;28;20443;-79
2021/11/15 03:52:06;;;;;;;14.30;2.90;;;;;;;7.54;88.85;102423.28;5037244;28;20442;-81
2021/11/15 03:54:33;;;;;;;0.50;0.30;;;;;;;7.56;88.60;102423.88;5036720;28;20841;-80
2021/11/15 03:56:59;;;;;;;0.50;0.50;;;;;;;7.55;88.31;102426.81;5037271;28;20455;-81
2021/11/15 03:59:26;;;;;;;0.40;0.30;;;;;;;7.47;88.23;102425.28;5037253;28;20836;-81
2021/11/15 04:01:53;;;;;;;0.53;0.53;;;;;;;7.49;88.20;102427.75;5036415;28;20454;-82
2021/11/15 04:04:27;;;;;;;1.43;1.33;;;;;;;7.48;88.87;102429.63;5037147;28;20471;-78
2021/11/15 04:06:54;;;;;;;0.50;0.40;;;;;;;7.48;88.75;102429.63;5037491;28;20474;-80
2021/11/15 04:09:21;;;;;;;0.40;0.30;;;;;;;7.50;88.78;102422.13;5036691;28;20457;-81
2021/11/15 04:11:48;;;;;;;0.40;0.30;;;;;;;7.40;89.98;102423.78;5038382;28;20436;-82
2021/11/15 04:14:15;;;;;;;0.40;0.30;;;;;;;7.39;89.51;102422.94;5038368;28;20501;-81
2021/11/15 04:16:44;;;;;;;5.03;4.73;;;;;;;7.36;90.70;102423.41;5039016;28;20858;-81
2021/11/15 04:19:15;;;;;;;0.50;0.40;;;;;;;7.43;90.81;102425.97;5039967;28;20547;-83
2021/11/15 04:21:43;;;;;;;0.40;0.30;;;;;;;7.49;91.07;102423.19;5038120;28;20455;-81
2021/11/15 04:24:11;;;;;;;0.63;0.63;;;;;;;7.46;91.53;102425.53;5037452;28;20463;-80
2021/11/15 04:26:37;;;;;;;0.47;0.30;;;;;;;7.50;91.37;102424.00;5037707;28;20431;-81
2021/11/15 04:29:04;;;;;;;0.40;0.30;;;;;;;7.50;91.80;102415.91;5036926;28;20814;-80
2021/11/15 04:31:30;;;;;;;2.30;2.20;;;;;;;7.55;91.58;102418.72;5037351;28;20959;-81
2021/11/15 04:33:57;;;;;;;0.40;0.30;;;;;;;7.54;91.86;102417.09;5037953;28;20470;-81
2021/11/15 04:36:24;;;;;;;0.40;0.30;;;;;;;7.53;91.66;102420.84;5053406;28;20487;-80
2021/11/15 04:38:52;;;;;;;0.40;0.20;;;;;;;7.52;91.88;102416.47;5050657;28;20804;-81
2021/11/15 04:41:19;;;;;;;0.40;0.30;;;;;;;7.55;91.63;102416.03;5037135;28;20483;-81
2021/11/15 04:43:46;;;;;;;0.40;0.30;;;;;;;7.50;91.99;102413.22;5037175;28;20463;-81
2021/11/15 04:46:12;;;;;;;0.40;0.30;;;;;;;7.48;92.49;102418.00;5037245;28;20447;-81
2021/11/15 04:48:39;;;;;;;1.40;1.30;;;;;;;7.50;92.02;102415.91;5036724;28;20446;-80
2021/11/15 04:51:06;;;;;;;0.73;0.73;;;;;;;7.50;91.37;102418.59;5037336;28;20447;-81
2021/11/15 04:53:32;;;;;;;0.40;0.30;;;;;;;7.49;91.31;102416.97;5036328;28;20471;-80
2021/11/15 05:02:49;;;;;;;0.40;0.30;;;;;;;7.38;91.09;102407.00;5055662;28;20410;-81
2021/11/15 05:05:16;;;;;;;1.00;0.87;;;;;;;7.32;92.08;102401.50;5058917;28;20505;-81
2021/11/15 05:07:43;;;;;;;5.33;3.60;;;;;;;7.36;91.87;102409.13;5056153;28;20430;-80
2021/11/15 05:10:10;;;;;;;0.90;0.90;;;;;;;7.36;91.58;102409.13;5057161;28;20812;-80
2021/11/15 05:12:37;;;;;;;1.50;1.40;;;;;;;7.34;91.91;102409.34;5056654;28;20465;-79
2021/11/15 05:15:05;;;;;;;0.40;0.30;;;;;;;7.38;92.25;102415.09;5059723;28;20474;-80
2021/11/15 05:17:32;;;;;;;0.40;0.30;;;;;;;7.39;92.76;102414.03;5060089;28;20430;-80
2021/11/15 05:20:00;;;;;;;0.40;0.20;;;;;;;7.46;92.66;102406.66;5059554;28;20492;-80
2021/11/15 05:22:26;;;;;;;0.40;0.30;;;;;;;7.48;92.92;102416.16;5060111;28;20453;-81
2021/11/15 05:24:53;;;;;;;0.50;0.50;;;;;;;7.51;92.62;102422.94;5059315;28;20450;-80
2021/11/15 05:27:20;;;;;;;0.40;0.20;;;;;;;7.47;93.22;102411.78;5059422;28;20465;-81
2021/11/15 05:29:46;;;;;;;0.40;0.30;;;;;;;7.52;93.23;102416.47;5059645;28;20834;-80
2021/11/15 05:32:13;;;;;;;0.70;0.70;;;;;;;7.55;93.00;102413.31;5059391;28;20453;-82
2021/11/15 05:34:40;;;;;;;0.50;0.40;;;;;;;7.53;93.03;102402.78;5059215;28;20474;-81
2021/11/15 05:37:08;;;;;;;0.40;0.30;;;;;;;7.60;92.72;102408.03;5059344;28;20446;-81
2021/11/15 05:39:34;;;;;;;0.50;0.43;;;;;;;7.55;92.92;102411.44;5058932;28;20437;-81
2021/11/15 05:42:01;;;;;;;0.40;0.30;;;;;;;7.58;92.78;102415.56;5059134;28;20457;-81
2021/11/15 05:44:28;;;;;;;2.47;2.33;;;;;;;7.57;92.89;102413.94;5058939;28;20466;-80
2021/11/15 05:46:54;;;;;;;6.53;2.83;;;;;;;7.56;92.61;102409.56;5059346;28;20916;-80
2021/11/15 05:49:21;;;;;;;0.40;0.30;;;;;;;7.57;92.13;102413.94;5058806;28;20450;-81
2021/11/15 05:51:48;;;;;;;0.40;0.30;;;;;;;7.54;91.62;102411.69;5058851;28;20449;-81
2021/11/15 05:54:15;;;;;;;0.40;0.30;;;;;;;7.52;91.11;102421.88;5060178;28;20461;-81
2021/11/15 05:56:43;;;;;;;0.40;0.20;;;;;;;7.47;91.62;102427.97;5060312;28;20458;-82
2021/11/15 05:59:10;;;;;;;0.40;0.30;;;;;;;7.44;91.51;102420.38;5060066;28;20454;-82
2021/11/15 06:01:37;;;;;;;1.03;1.03;;;;;;;7.33;91.80;102419.31;5062101;28;20496;-82
2021/11/15 06:04:03;;;;;;;2.00;1.90;;;;;;;7.38;91.72;102420.47;5061454;28;20814;-83
2021/11/15 06:06:30;;;;;;;0.80;0.80;;;;;;;7.33;92.37;102421.19;5061066;28;20435;-83
2021/11/15 06:08:57;;;;;;;13.93;8.47;;;;;;;7.27;91.64;102422.94;5062195;28;20438;-82
2021/11/15 06:11:25;;;;;;;1.13;1.13;;;;;;;7.29;91.86;102418.13;5063583;28;20443;-83
2021/11/15 06:13:51;;;;;;;0.40;0.20;;;;;;;7.36;92.54;102431.50;5061698;28;20477;-82
2021/11/15 06:16:18;;;;;;;0.70;0.70;;;;;;;7.36;93.39;102428.00;5061259;28;20928;-82
2021/11/15 06:18:44;;;;;;;0.97;0.97;;;;;;;7.46;93.52;102431.72;5065101;28;20431;-82
2021/11/15 06:21:12;;;;;;;2.30;1.53;;;;;;;7.48;93.60;102432.34;5060070;28;21002;-80
2021/11/15 06:23:38;;;;;;;0.40;0.30;;;;;;;7.55;93.32;102430.31;5058943;28;20557;-79
2021/11/15 06:26:05;;;;;;;0.40;0.30;;;;;;;7.52;93.60;102430.78;5058438;28;20457;-80
2021/11/15 06:28:33;;;;;;;0.40;0.30;;;;;;;7.57;93.56;102433.63;5050387;28;20449;-81
2021/11/15 06:30:59;;;;;;;0.40;0.30;;;;;;;7.60;93.90;102440.41;5058485;28;20453;-80
2021/11/15 06:33:26;;;;;;;0.40;0.40;;;;;;;7.65;93.48;102448.59;5058403;28;20462;-81
2021/11/15 06:35:53;;;;;;;0.40;0.30;;;;;;;7.65;93.01;102451.31;5058968;28;20438;-81
2021/11/15 06:38:19;;;;;;;0.67;0.67;;;;;;;7.61;93.29;102449.31;5058729;28;20562;-81
2021/11/15 06:40:46;;;;;;;0.40;0.27;;;;;;;7.63;93.69;102447.22;5057651;28;20486;-80
2021/11/15 06:43:12;;;;;;;0.40;0.30;;;;;;;7.64;92.69;102449.66;5058404;28;20450;-81
2021/11/15 06:45:40;;;;;;;6.80;4.53;;;;;;;7.56;91.59;102450.00;5059456;28;20452;-82
2021/11/15 06:48:07;;;;;;;0.40;0.30;;;;;;;7.56;91.02;102448.13;5059152;28;20445;-81
2021/11/15 06:50:33;;;;;;;2.97;2.77;;;;;;;7.54;91.56;102446.75;5059173;28;20800;-81
2021/11/15 06:53:00;;;;;;;0.40;0.30;;;;;;;7.49;91.28;102441.25;5059061;28;20438;-81
2021/11/15 06:55:27;;;;;;;0.40;0.30;;;;;;;7.42;91.75;102440.53;5058723;28;20447;-81
2021/11/15 06:57:54;;;;;;;0.40;0.30;;;;;;;7.35;92.31;102446.03;5058403;28;20438;-81
2021/11/15 07:00:23;;;;;;;0.40;0.40;;;;;;;7.40;92.09;102454.25;5058414;28;21007;-81
2021/11/15 07:02:52;;;;;;;0.40;0.30;;;;;;;7.46;91.89;102447.09;5057933;28;20447;-80
2021/11/15 07:05:21;;;;;;;0.40;0.30;;;;;;;7.50;91.89;102448.28;5058530;28;20438;-81
2021/11/15 07:07:48;;;;;;;0.40;0.30;;;;;;;7.47;92.25;102444.16;5058589;28;20435;-81
2021/11/15 07:10:14;;;;;;;0.40;0.30;;;;;;;7.47;93.40;102454.13;5058423;28;20442;-80
2021/11/15 07:12:42;;;;;;;0.40;0.30;;;;;;;7.44;94.29;102443.81;5057660;28;20468;-80
2021/11/15 07:15:10;;;;;;;0.50;0.30;;;;;;;7.49;94.08;102444.75;5057978;28;20458;-79
2021/11/15 07:17:38;;;;;;;0.97;0.97;;;;;;;7.49;93.79;102450.16;5057750;28;20458;-80
2021/11/15 07:20:07;;;;;;;0.40;0.30;;;;;;;7.54;93.84;102449.44;5057262;28;20430;-80
2021/11/15 07:22:34;;;;;;;0.40;0.30;;;;;;;7.54;94.29;102444.06;5057554;28;20457;-81
2021/11/15 07:25:01;;;;;;;0.40;0.30;;;;;;;7.55;93.89;102445.69;5057824;28;20485;-81
2021/11/15 07:27:28;;;;;;;0.40;0.30;;;;;;;7.60;94.03;102448.50;5057920;28;20443;-81
2021/11/15 07:29:55;;;;;;;0.40;0.30;;;;;;;7.57;94.27;102449.81;5058078;28;20958;-80
2021/11/15 07:32:22;;;;;;;0.40;0.30;;;;;;;7.66;93.81;102452.97;5057888;28;20809;-80
2021/11/15 07:34:48;;;;;;;9.10;8.37;;;;;;;7.69;93.77;102454.34;5057783;28;20462;-81
2021/11/15 07:37:16;;;;;;;0.93;0.87;;;;;;;7.65;93.88;102456.69;5056927;28;20435;-81
2021/11/15 07:39:43;;;;;;;0.40;0.30;;;;;;;7.69;93.72;102457.06;5057555;28;20470;-81
2021/11/15 07:42:11;;;;;;;0.40;0.30;;;;;;;7.62;93.44;102449.09;5059217;28;20846;-80
2021/11/15 07:44:38;;;;;;;0.40;0.40;;;;;;;7.62;92.67;102451.78;5058269;28;20503;-81
2021/11/15 07:47:06;;;;;;;0.40;0.30;;;;;;;7.56;92.15;102452.72;5057967;28;20446;-80
2021/11/15 07:49:32;;;;;;;0.93;0.93;;;;;;;7.60;91.71;102448.50;5058909;28;20443;-80
2021/11/15 07:52:00;;;;;;;0.40;0.20;;;;;;;7.59;91.55;102458.47;5058901;28;20434;-79
2021/11/15 07:54:27;;;;;;;0.40;0.30;;;;;;;7.61;91.02;102458.22;5058828;28;20983;-80
2021/11/15 07:56:54;;;;;;;0.40;0.30;;;;;;;7.58;91.27;102456.00;5058821;28;20437;-83
2021/11/15 07:59:20;;;;;;;0.40;0.20;;;;;;;7.64;91.55;102454.25;5058353;28;20451;-82
2021/11/15 08:01:47;;;;;;;0.40;0.30;;;;;;;7.68;90.48;102450.84;5064893;28;20478;-81
2021/11/15 08:04:14;;;;;;;0.40;0.30;;;;;;;7.75;90.55;102456.13;5074186;28;20469;-80
2021/11/15 08:06:40;;;;;;;5.30;2.33;;;;;;;7.75;90.95;102456.13;5060317;28;20442;-80
2021/11/15 08:09:07;;;;;;;0.87;0.87;;;;;;;7.75;91.29;102465.03;5059019;28;20434;-81
2021/11/15 08:11:37;;;;;;;0.50;0.40;;;;;;;7.76;91.43;102453.19;5055700;28;20936;-81
2021/11/15 08:14:04;;;;;;;0.40;0.30;;;;;;;7.82;91.79;102454.94;5055237;28;20844;-81
2021/11/15 08:16:31;;;;;;;0.57;0.57;;;;;;;7.82;91.80;102454.94;5056666;28;20935;-81
2021/11/15 08:18:58;;;;;;;0.40;0.30;;;;;;;7.81;91.82;102461.38;5059067;28;20433;-81
2021/11/15 08:21:26;;;;;;;0.40;0.30;;;;;;;7.79;91.36;102450.03;5059363;28;20846;-83
2021/11/15 08:23:53;;;;;;;1.23;1.20;;;;;;;7.82;91.26;102451.41;5060739;28;20464;-83
2021/11/15 08:26:38;;;;;;;0.40;0.30;;;;;;;7.89;90.90;102451.31;5061507;28;20445;-83
2021/11/15 08:29:08;;;;;;;0.60;0.60;;;;;;;7.88;90.77;102450.50;5063386;28;20522;-87
2021/11/15 08:31:35;;;;;;;0.40;0.30;;;;;;;7.86;90.75;102446.38;5058531;28;20454;-85
2021/11/15 08:34:02;;;;;;;0.40;0.30;;;;;;;7.86;90.41;102446.38;5057893;28;20466;-83
2021/11/15 08:36:29;;;;;;;2.80;2.60;;;;;;;7.81;90.12;102441.69;5059747;28;20456;-84
2021/11/15 08:38:59;;;;;;;0.40;0.30;;;;;;;7.83;90.34;102447.66;5058751;28;20966;-84
2021/11/15 08:41:32;;;;;;;0.40;0.20;;;;;;;7.90;90.69;102452.94;5057764;28;20490;-86
2021/11/15 08:44:02;;;;;;;0.40;0.20;;;;;;;7.96;90.42;102451.97;5057717;28;20446;-84
2021/11/15 08:46:30;;;;;;;2.87;2.60;;;;;;;7.98;90.59;102449.88;5058356;28;20822;-83
2021/11/15 08:48:58;;;;;;;0.40;0.23;;;;;;;8.00;90.55;102453.97;5058760;28;20430;-84
2021/11/15 08:51:26;;;;;;;0.40;0.30;;;;;;;8.01;90.69;102450.22;5057715;28;20450;-83
2021/11/15 08:53:55;;;;;;;2.40;2.20;;;;;;;8.00;90.94;102451.25;5058494;28;20463;-83
2021/11/15 08:56:22;;;;;;;0.40;0.30;;;;;;;7.98;90.83;102450.69;5056024;28;20446;-83
2021/11/15 08:58:50;;;;;;;0.40;0.30;;;;;;;8.04;91.18;102457.00;5054847;28;20434;-84
2021/11/15 09:01:18;;;;;;;0.40;0.30;;;;;;;7.97;90.98;102435.56;5055021;28;20481;-84
2021/11/15 09:03:47;;;;;;;0.40;0.30;;;;;;;7.91;90.94;102449.19;5055917;28;20508;-84
2021/11/15 09:06:14;;;;;;;0.40;0.20;;;;;;;7.91;90.48;102441.91;5056059;28;20829;-85
2021/11/15 09:08:42;;;;;;;2.00;1.90;;;;;;;7.93;90.37;102450.59;5055283;28;20438;-83
2021/11/15 09:11:10;;;;;;;0.40;0.30;;;;;;;7.92;90.61;102450.81;5055941;28;20445;-83
2021/11/15 09:13:39;;;;;;;1.37;1.33;;;;;;;7.90;90.75;102452.94;5055777;28;20846;-84
2021/11/15 09:16:06;;;;;;;0.40;0.30;;;;;;;7.92;90.61;102456.19;5057419;28;20431;-84
2021/11/15 09:18:34;;;;;;;0.40;0.30;;;;;;;7.97;89.85;102457.16;5061938;28;20439;-84
2021/11/15 09:21:01;;;;;;;0.40;0.20;;;;;;;7.97;89.74;102450.91;5061776;28;20446;-84
2021/11/15 09:23:28;;;;;;;0.40;0.30;;;;;;;7.92;89.77;102461.59;5062870;28;20505;-85
2021/11/15 09:25:55;;;;;;;0.40;0.30;;;;;;;7.91;90.19;102451.88;5064289;28;20800;-84
2021/11/15 09:28:21;;;;;;;0.40;0.30;;;;;;;7.88;89.68;102455.88;5058072;28;20446;-86
2021/11/15 09:30:49;;;;;;;0.40;0.30;;;;;;;7.82;90.11;102464.91;5057474;28;20461;-84
2021/11/15 09:33:15;;;;;;;0.77;0.77;;;;;;;7.83;89.97;102469.22;5058085;28;20462;-84
2021/11/15 09:35:48;;;;;;;0.40;0.20;;;;;;;7.73;90.45;102466.31;5056497;28;20450;-82
2021/11/15 09:38:16;;;;;;;0.40;0.30;;;;;;;7.81;90.10;102460.56;5054128;28;20900;-85
2021/11/15 09:40:43;;;;;;;0.40;0.30;;;;;;;7.86;88.64;102462.56;5055070;28;20430;-85
2021/11/15 09:43:10;;;;;;;0.40;0.37;;;;;;;7.83;88.07;102464.69;5056201;28;20524;-84
2021/11/15 09:45:38;;;;;;;0.40;0.30;;;;;;;7.79;87.88;102463.50;5059222;28;20442;-84
2021/11/15 09:48:05;;;;;;;2.67;2.47;;;;;;;7.78;88.17;102469.94;5058140;28;20434;-86
2021/11/15 09:50:31;;;;;;;0.40;0.30;;;;;;;7.78;88.48;102466.44;5060273;28;20462;-84
2021/11/15 09:52:59;;;;;;;0.40;0.30;;;;;;;7.75;88.27;102467.75;5057909;28;20958;-84
2021/11/15 09:55:26;;;;;;;0.50;0.30;;;;;;;7.77;87.97;102470.19;5059364;28;20430;-83
2021/11/15 09:57:52;;;;;;;0.40;0.30;;;;;;;7.80;88.72;102470.53;5057380;28;20453;-83
2021/11/15 10:00:23;;;;;;;0.40;0.30;;;;;;;7.80;89.13;102464.34;5061079;28;20442;-84
2021/11/15 10:02:51;;;;;;;1.47;1.37;;;;;;;7.84;89.53;102466.31;5064550;28;20484;-84
2021/11/15 10:05:19;;;;;;;0.40;0.30;;;;;;;7.81;88.95;102460.56;5065866;28;20442;-83
2021/11/15 10:07:48;;;;;;;0.40;0.30;;;;;;;7.79;89.27;102460.81;5064938;28;20431;-85
2021/11/15 10:10:28;;;;;;;1.43;1.37;;;;;;;7.79;88.67;102452.72;5063917;28;20781;-85
2021/11/15 10:13:20;;;;;;;0.40;0.30;;;;;;;7.84;87.94;102444.75;5064097;28;20442;-84
2021/11/15 10:15:50;;;;;;;0.40;0.30;;;;;;;7.84;88.29;102452.84;5060722;28;20442;-84
2021/11/15 10:18:21;;;;;;;0.40;0.30;;;;;;;7.86;88.84;102451.78;5065407;28;20446;-84
2021/11/15 10:20:50;;;;;;;0.40;0.30;;;;;;;7.83;88.33;102448.50;5064346;28;20427;-84
2021/11/15 10:23:32;;;;;;;1.17;1.07;;;;;;;7.89;87.91;102449.41;5068117;28;20482;-81
2021/11/15 10:26:12;;;;;;;0.80;0.80;;;;;;;7.91;87.21;102443.78;5061235;28;20854;-83
2021/11/15 10:28:39;;;;;;;1.83;1.73;;;;;;;7.82;86.95;102446.84;5062216;28;20422;-83
2021/11/15 10:31:23;;;;;;;0.40;0.30;;;;;;;7.75;87.27;102451.56;5061671;28;20526;-83
2021/11/15 10:33:50;;;;;;;0.40;0.30;;;;;;;7.79;87.28;102451.88;5062603;28;20470;-83
2021/11/15 10:36:16;;;;;;;1.00;1.00;;;;;;;7.77;87.47;102448.59;5062586;28;20437;-83
2021/11/15 10:38:46;;;;;;;0.40;0.30;;;;;;;7.81;87.22;102449.78;5062214;28;20939;-84
2021/11/15 10:41:17;;;;;;;0.40;0.30;;;;;;;7.79;87.35;102444.63;5062047;28;20427;-84
2021/11/15 10:43:46;;;;;;;0.40;0.20;;;;;;;7.76;87.21;102455.88;5061719;28;20549;-83
2021/11/15 10:46:28;;;;;;;0.40;0.33;;;;;;;7.64;87.02;102446.97;5062329;28;20998;-82
2021/11/15 10:48:58;;;;;;;0.40;0.30;;;;;;;7.62;87.33;102445.59;5064194;28;20435;-83
2021/11/15 10:51:46;;;;;;;0.40;0.30;;;;;;;7.61;87.80;102444.72;5062534;28;20494;-82
2021/11/15 10:54:42;;;;;;;1.27;1.23;;;;;;;7.72;87.80;102443.09;5061462;28;20844;-84
2021/11/15 10:57:29;;;;;;;0.40;0.30;;;;;;;7.75;87.30;102445.34;5060208;28;20435;-84
2021/11/15 11:00:33;;;;;;;0.40;0.30;;;;;;;7.81;87.78;102439.00;5061340;28;20525;-84
2021/11/15 11:03:07;;;;;;;0.40;0.30;;;;;;;7.91;87.88;102444.59;5060378;28;20505;-83
2021/11/15 11:05:36;;;;;;;0.40;0.20;;;;;;;7.91;88.23;102449.19;5061806;28;20419;-83
2021/11/15 11:08:09;;;;;;;0.40;0.30;;;;;;;7.90;87.86;102442.97;5060821;28;20437;-83
2021/11/15 11:10:43;;;;;;;1.90;1.80;;;;;;;7.94;88.24;102443.31;5060548;28;20892;-84
2021/11/15 11:13:15;;;;;;;0.40;0.27;;;;;;;7.96;88.21;102431.22;5062757;28;20474;-84
2021/11/15 11:15:45;;;;;;;0.40;0.30;;;;;;;7.99;87.47;102438.03;5063195;28;20431;-85
2021/11/15 11:18:17;;;;;;;2.20;2.10;;;;;;;7.97;87.61;102434.72;5062997;28;20435;-83
2021/11/15 11:23:57;;;;;;;0.40;0.30;;;;;;;7.85;87.93;102429.38;5060615;28;20490;-83
2021/11/15 11:26:28;;;;;;;3.97;3.60;;;;;;;7.89;87.99;102419.75;5061564;28;20446;-84
2021/11/15 11:28:58;;;;;;;1.07;0.77;;;;;;;7.85;87.17;102413.19;5060790;28;20473;-84
2021/11/15 11:31:27;;;;;;;0.40;0.30;;;;;;;7.84;86.96;102433.94;5060473;28;20468;-83
2021/11/15 11:33:54;;;;;;;0.43;0.23;;;;;;;7.79;87.06;102419.50;5059508;28;20841;-83
2021/11/15 11:36:21;;;;;;;0.40;0.30;;;;;;;7.78;87.23;102413.28;5060770;28;20442;-83
2021/11/15 11:38:48;;;;;;;0.70;0.70;;;;;;;7.75;86.78;102421.88;5062353;28;20461;-82
2021/11/15 11:41:16;;;;;;;0.40;0.30;;;;;;;7.76;87.08;102406.50;5061497;28;20446;-83
2021/11/15 11:43:44;;;;;;;0.40;0.27;;;;;;;7.75;86.86;102405.69;5061573;28;20560;-83
2021/11/15 11:46:13;;;;;;;0.40;0.30;;;;;;;7.73;87.09;102407.78;5060148;28;20932;-83
2021/11/15 11:48:40;;;;;;;0.40;0.30;;;;;;;7.64;87.04;102406.50;5061911;28;20430;-83